createdAt,value
2018-03-25T00:00:59.403Z,27.20
2018-03-25T00:03:27.830Z,27.08
2018-03-25T00:05:56.279Z,27.87
2018-03-25T00:08:24.895Z,26.05
2018-03-25T00:10:53.611Z,25.92
2018-03-25T00:13:22.702Z,27.45
2018-03-25T00:15:52.776Z,27.75
2018-03-25T00:18:22.625Z,25.90
2018-03-25T00:20:51.437Z,27.92
2018-03-25T00:23:19.872Z,25.10
2018-03-25T00:25:48.577Z,24.55
2018-03-25T00:28:17.270Z,27.62
2018-03-25T00:30:46.273Z,27.52
2018-03-25T00:33:15.628Z,26.30
2018-03-25T00:35:44.005Z,25.37
2018-03-25T00:38:12.384Z,28.17
2018-03-25T00:40:40.793Z,28.15
2018-03-25T00:43:09.175Z,29.58
2018-03-25T00:45:37.575Z,25.75
2018-03-25T00:48:05.958Z,24.85
2018-03-25T00:50:34.555Z,26.12
2018-03-25T00:53:02.926Z,26.15
2018-03-25T00:55:31.318Z,28.25
2018-03-25T00:58:00.511Z,26.05
2018-03-25T01:00:28.890Z,26.20
2018-03-25T01:02:57.298Z,24.48
2018-03-25T01:05:25.675Z,26.48
2018-03-25T01:07:54.044Z,25.70
2018-03-25T01:10:22.460Z,24.80
2018-03-25T01:12:50.841Z,25.90
2018-03-25T01:15:19.236Z,25.65
2018-03-25T01:17:47.627Z,23.30
2018-03-25T01:20:16.080Z,24.30
2018-03-25T01:22:46.764Z,24.90
2018-03-25T01:25:15.948Z,25.70
2018-03-25T01:27:44.350Z,26.35
2018-03-25T01:30:12.737Z,28.35
2018-03-25T01:32:41.144Z,26.83
2018-03-25T01:35:09.523Z,27.75
2018-03-25T01:37:37.938Z,25.98
2018-03-25T01:40:06.314Z,32.05
2018-03-25T01:42:34.710Z,29.20
2018-03-25T01:45:03.120Z,26.83
2018-03-25T01:47:31.530Z,28.30
2018-03-25T01:49:59.902Z,29.20
2018-03-25T01:52:28.310Z,28.87
2018-03-25T01:54:56.690Z,32.10
2018-03-25T01:57:25.064Z,29.77
2018-03-25T01:59:54.235Z,24.27
2018-03-25T02:02:22.607Z,28.08
2018-03-25T02:04:51.001Z,30.02
2018-03-25T02:07:19.401Z,28.15
2018-03-25T02:09:47.802Z,27.08
2018-03-25T02:12:17.012Z,26.70
2018-03-25T02:14:45.398Z,24.87
2018-03-25T02:17:13.781Z,26.40
2018-03-25T02:19:42.160Z,26.98
2018-03-25T02:22:10.564Z,26.23
2018-03-25T02:24:38.947Z,25.83
2018-03-25T02:27:07.350Z,26.17
2018-03-25T02:29:36.508Z,22.33
2018-03-25T02:34:39.432Z,26.92
2018-03-25T02:37:08.003Z,27.67
2018-03-25T02:39:36.387Z,28.15
2018-03-25T02:42:04.787Z,30.80
2018-03-25T02:44:34.361Z,29.40
2018-03-25T02:47:02.739Z,29.60
2018-03-25T02:49:31.142Z,30.35
2018-03-25T02:51:59.534Z,26.98
2018-03-25T02:54:28.063Z,27.75
2018-03-25T02:56:56.444Z,28.00
2018-03-25T02:59:24.829Z,28.02
2018-03-25T03:01:53.231Z,28.75
2018-03-25T03:04:21.610Z,27.37
2018-03-25T03:06:50.028Z,25.42
2018-03-25T03:09:19.227Z,26.87
2018-03-25T03:11:48.572Z,28.85
2018-03-25T03:14:16.961Z,29.75
2018-03-25T03:16:45.343Z,28.85
2018-03-25T03:19:13.759Z,24.25
2018-03-25T03:21:42.895Z,25.42
2018-03-25T03:24:11.298Z,24.35
2018-03-25T03:26:39.679Z,25.85
2018-03-25T03:29:08.091Z,25.50
2018-03-25T03:31:37.230Z,24.12
2018-03-25T03:34:05.648Z,26.33
2018-03-25T03:36:34.018Z,23.45
2018-03-25T03:39:02.421Z,28.38
2018-03-25T03:41:31.567Z,26.80
2018-03-25T03:44:00.052Z,25.12
2018-03-25T03:46:28.426Z,26.12
2018-03-25T03:48:56.834Z,27.85
2018-03-25T03:51:25.218Z,26.00
2018-03-25T03:53:55.129Z,23.95
2018-03-25T03:56:23.507Z,25.12
2018-03-25T03:58:52.168Z,24.27
2018-03-25T04:01:20.567Z,24.25
2018-03-25T04:03:48.946Z,24.50
2018-03-25T04:06:17.365Z,23.25
2018-03-25T04:08:45.737Z,22.00
2018-03-25T04:11:14.903Z,24.85
2018-03-25T04:13:43.278Z,24.05
2018-03-25T04:16:11.696Z,22.67
2018-03-25T04:18:40.089Z,23.38
2018-03-25T04:21:09.505Z,26.30
2018-03-25T04:23:37.881Z,24.20
2018-03-25T04:26:06.251Z,24.48
2018-03-25T04:28:34.650Z,28.00
2018-03-25T04:31:03.037Z,24.80
2018-03-25T04:33:31.450Z,23.10
2018-03-25T04:36:00.591Z,25.65
2018-03-25T04:38:28.994Z,24.85
2018-03-25T04:40:57.374Z,25.02
2018-03-25T04:43:25.779Z,23.87
2018-03-25T04:45:54.206Z,25.67
2018-03-25T04:48:24.165Z,24.83
2018-03-25T04:50:53.057Z,24.80
2018-03-25T04:53:21.913Z,24.55
2018-03-25T04:55:51.740Z,23.65
2018-03-25T04:58:21.620Z,23.80
2018-03-25T05:00:50.616Z,24.35
2018-03-25T05:03:19.755Z,23.85
2018-03-25T05:05:49.654Z,24.50
2018-03-25T05:08:18.530Z,24.48
2018-03-25T05:10:47.967Z,24.30
2018-03-25T05:13:16.950Z,24.10
2018-03-25T05:15:45.330Z,26.15
2018-03-25T05:18:13.740Z,23.27
2018-03-25T05:20:42.887Z,24.80
2018-03-25T05:23:11.292Z,26.20
2018-03-25T05:25:39.670Z,25.67
2018-03-25T05:28:08.151Z,24.85
2018-03-25T05:30:37.317Z,23.45
2018-03-25T05:33:05.724Z,23.35
2018-03-25T05:35:34.099Z,22.85
2018-03-25T05:38:02.506Z,24.70
2018-03-25T05:40:31.644Z,23.80
2018-03-25T05:43:00.047Z,25.33
2018-03-25T05:45:28.431Z,22.08
2018-03-25T05:47:57.524Z,21.00
2018-03-25T05:50:26.802Z,22.90
2018-03-25T05:52:55.204Z,22.30
2018-03-25T05:55:24.352Z,22.60
2018-03-25T05:57:53.523Z,24.77
2018-03-25T06:00:22.698Z,23.20
2018-03-25T06:02:51.106Z,23.98
2018-03-25T06:05:20.296Z,23.10
2018-03-25T06:07:49.471Z,23.80
2018-03-25T06:10:17.847Z,23.40
2018-03-25T06:12:46.249Z,22.45
2018-03-25T06:15:15.401Z,23.50
2018-03-25T06:17:43.806Z,22.02
2018-03-25T06:20:12.188Z,22.48
2018-03-25T06:22:40.564Z,23.48
2018-03-25T06:25:09.738Z,24.73
2018-03-25T06:27:38.119Z,24.67
2018-03-25T06:30:06.546Z,24.75
2018-03-25T06:32:35.701Z,24.55
2018-03-25T06:35:04.371Z,26.75
2018-03-25T06:37:32.756Z,26.30
2018-03-25T06:40:01.138Z,26.98
2018-03-25T06:42:29.540Z,26.87
2018-03-25T06:44:57.912Z,25.75
2018-03-25T06:47:26.327Z,24.45
2018-03-25T06:49:54.701Z,25.33
2018-03-25T06:52:24.239Z,26.05
2018-03-25T06:54:52.622Z,26.60
2018-03-25T06:57:20.998Z,26.85
2018-03-25T06:59:49.398Z,26.15
2018-03-25T07:02:17.777Z,24.27
2018-03-25T07:04:46.174Z,24.60
2018-03-25T07:07:14.555Z,24.58
2018-03-25T07:09:43.201Z,25.17
2018-03-25T07:12:11.573Z,23.58
2018-03-25T07:14:39.967Z,25.40
2018-03-25T07:17:08.378Z,23.90
2018-03-25T07:19:36.761Z,25.33
2018-03-25T07:22:05.938Z,23.85
2018-03-25T07:24:34.322Z,26.67
2018-03-25T07:27:03.513Z,22.95
2018-03-25T07:29:31.921Z,24.33
2018-03-25T07:32:01.075Z,26.20
2018-03-25T07:34:29.500Z,24.45
2018-03-25T07:36:58.771Z,23.60
2018-03-25T07:39:27.191Z,24.85
2018-03-25T07:41:55.578Z,22.67
2018-03-25T07:44:24.031Z,22.90
2018-03-25T07:46:53.188Z,23.02
2018-03-25T07:49:21.594Z,22.80
2018-03-25T07:51:50.910Z,20.80
2018-03-25T07:54:20.067Z,18.70
2018-03-25T07:56:48.510Z,18.87
2018-03-25T07:59:16.900Z,20.97
2018-03-25T08:01:45.811Z,26.30
2018-03-25T08:04:14.195Z,33.60
2018-03-25T08:06:42.599Z,48.87
2018-03-25T08:09:11.840Z,21.23
2018-03-25T08:11:40.982Z,19.97
2018-03-25T08:14:09.397Z,22.70
2018-03-25T08:16:37.820Z,23.43
2018-03-25T08:19:06.254Z,20.97
2018-03-25T08:21:35.505Z,21.30
2018-03-25T08:24:03.889Z,24.50
2018-03-25T08:26:32.293Z,19.83
2018-03-25T08:29:01.503Z,18.63
2018-03-25T08:31:30.011Z,20.87
2018-03-25T08:39:59.010Z,20.30
2018-03-25T08:42:28.217Z,18.03
2018-03-25T08:44:57.471Z,18.23
2018-03-25T08:47:26.186Z,17.00
2018-03-25T08:49:55.368Z,17.40
2018-03-25T08:52:23.789Z,16.90
2018-03-25T08:54:52.231Z,19.37
2018-03-25T08:57:20.618Z,14.30
2018-03-25T08:59:49.055Z,16.33
2018-03-25T09:02:17.484Z,15.60
2018-03-25T09:04:46.682Z,15.97
2018-03-25T09:07:15.907Z,15.87
2018-03-25T09:09:44.325Z,14.40
2018-03-25T09:12:12.762Z,16.00
2018-03-25T09:14:41.144Z,14.60
2018-03-25T09:17:11.522Z,14.57
2018-03-25T09:19:48.746Z,15.93
2018-03-25T09:22:17.467Z,14.53
2018-03-25T09:28:14.445Z,16.73
2018-03-25T09:30:57.736Z,18.00
2018-03-25T09:33:26.195Z,17.83
2018-03-25T09:35:55.360Z,17.73
2018-03-25T09:38:23.760Z,18.50
2018-03-25T09:40:52.980Z,18.80
2018-03-25T09:43:22.173Z,16.53
2018-03-25T09:45:54.549Z,17.50
2018-03-25T09:48:22.978Z,17.70
2018-03-25T09:50:52.279Z,18.10
2018-03-25T09:53:20.667Z,18.17
2018-03-25T09:55:49.063Z,17.50
2018-03-25T09:58:18.235Z,19.10
2018-03-25T10:00:49.635Z,17.80
2018-03-25T10:03:38.710Z,17.17
2018-03-25T10:06:07.486Z,18.20
2018-03-25T10:08:35.901Z,17.70
2018-03-25T10:11:05.099Z,17.87
2018-03-25T10:13:34.800Z,17.00
2018-03-25T10:16:07.961Z,18.33
2018-03-25T10:18:39.193Z,16.87
2018-03-25T10:21:07.627Z,18.20
2018-03-25T10:23:36.140Z,18.83
2018-03-25T10:26:05.174Z,18.53
2018-03-25T10:28:33.561Z,18.40
2018-03-25T10:31:01.966Z,18.23
2018-03-25T10:33:31.068Z,18.37
2018-03-25T10:35:59.742Z,17.10
2018-03-25T10:38:49.834Z,17.77
2018-03-25T10:41:45.034Z,15.70
2018-03-25T10:47:04.422Z,17.13
2018-03-25T10:49:33.738Z,21.97
2018-03-25T10:52:02.123Z,20.37
2018-03-25T10:54:32.034Z,19.30
2018-03-25T10:57:00.414Z,18.03
2018-03-25T10:59:28.835Z,19.77
2018-03-25T11:01:57.214Z,16.50
2018-03-25T11:04:25.886Z,16.97
2018-03-25T11:06:55.038Z,16.47
2018-03-25T11:09:23.430Z,16.43
2018-03-25T11:11:51.835Z,18.10
2018-03-25T11:14:21.267Z,15.70
2018-03-25T11:16:49.681Z,16.90
2018-03-25T11:19:18.095Z,16.73
2018-03-25T11:21:47.547Z,16.57
2018-03-25T11:24:15.976Z,16.10
2018-03-25T11:26:45.120Z,15.53
2018-03-25T11:29:13.586Z,16.30
2018-03-25T11:31:41.966Z,16.70
2018-03-25T11:34:11.444Z,17.63
2018-03-25T11:36:40.547Z,16.00
2018-03-25T11:39:10.868Z,15.47
2018-03-25T11:41:40.414Z,15.50
2018-03-25T11:44:09.843Z,16.03
2018-03-25T11:46:38.254Z,16.50
2018-03-25T11:49:07.422Z,15.27
2018-03-25T11:51:35.832Z,22.60
2018-03-25T11:54:04.992Z,13.50
2018-03-25T11:56:33.412Z,13.47
2018-03-25T11:59:01.799Z,14.03
2018-03-25T12:01:33.517Z,13.13
2018-03-25T12:04:02.668Z,14.63
2018-03-25T12:06:31.049Z,19.17
2018-03-25T12:08:59.471Z,15.50
2018-03-25T12:11:27.855Z,12.90
2018-03-25T12:13:57.030Z,13.50
2018-03-25T12:16:26.036Z,13.13
2018-03-25T12:18:54.635Z,14.57
2018-03-25T12:21:22.996Z,21.20
2018-03-25T12:23:51.386Z,11.90
2018-03-25T12:26:20.234Z,12.40
2018-03-25T12:28:48.615Z,12.47
2018-03-25T12:31:17.026Z,12.47
2018-03-25T12:33:45.412Z,14.50
2018-03-25T12:36:14.055Z,13.43
2018-03-25T12:38:42.455Z,12.70
2018-03-25T12:41:10.858Z,13.67
2018-03-25T12:43:40.648Z,14.40
2018-03-25T13:06:29.854Z,13.20
2018-03-25T13:09:02.313Z,11.37
2018-03-25T13:11:31.926Z,66.37
2018-03-25T13:14:00.315Z,13.40
2018-03-25T13:16:29.471Z,12.43
2018-03-25T13:18:58.012Z,12.60
2018-03-25T13:21:27.171Z,13.97
2018-03-25T13:23:55.637Z,41.23
2018-03-25T13:26:24.025Z,20.03
2018-03-25T13:28:52.768Z,13.40
2018-03-25T13:31:21.154Z,14.10
2018-03-25T13:33:49.664Z,15.10
2018-03-25T13:36:18.076Z,13.57
2018-03-25T13:38:46.472Z,14.93
2018-03-25T13:41:15.641Z,13.70
2018-03-25T13:43:44.026Z,15.30
2018-03-25T13:46:12.426Z,13.30
2018-03-25T13:48:41.574Z,13.97
2018-03-25T13:51:10.042Z,13.40
2018-03-25T13:53:38.428Z,13.77
2018-03-25T13:56:06.904Z,14.00
2018-03-25T13:58:35.322Z,14.50
2018-03-25T14:01:03.727Z,13.80
2018-03-25T14:03:32.903Z,13.53
2018-03-25T14:06:01.308Z,13.73
2018-03-25T14:08:29.879Z,13.60
2018-03-25T14:10:59.042Z,16.53
2018-03-25T14:13:27.418Z,13.30
2018-03-25T14:15:56.047Z,14.40
2018-03-25T14:21:24.424Z,14.30
2018-03-25T14:23:53.652Z,14.07
2018-03-25T14:26:23.701Z,14.50
2018-03-25T14:28:52.172Z,14.93
2018-03-25T14:31:22.114Z,14.70
2018-03-25T14:33:53.554Z,13.97
2018-03-25T14:36:22.022Z,14.67
2018-03-25T14:38:52.621Z,15.47
2018-03-25T14:41:21.178Z,16.37
2018-03-25T14:43:49.844Z,16.10
2018-03-25T14:46:20.550Z,16.80
2018-03-25T14:48:53.339Z,17.73
2018-03-25T14:51:21.787Z,21.90
2018-03-25T14:53:50.214Z,19.63
2018-03-25T14:56:21.131Z,17.10
2018-03-25T14:58:51.457Z,15.87
2018-03-25T15:01:22.416Z,16.77
2018-03-25T15:03:53.328Z,17.20
2018-03-25T15:06:24.415Z,18.13
2018-03-25T15:08:56.146Z,16.80
2018-03-25T15:11:27.407Z,15.97
2018-03-25T15:13:59.005Z,18.00
2018-03-25T15:16:30.672Z,17.83
2018-03-25T15:19:01.573Z,19.77
2018-03-25T15:21:33.727Z,19.50
2018-03-25T15:24:05.357Z,19.03
2018-03-25T15:26:36.374Z,20.03
2018-03-25T15:29:07.038Z,20.43
2018-03-25T15:31:37.833Z,17.77
2018-03-25T15:34:07.803Z,19.57
2018-03-25T15:36:39.295Z,18.20
2018-03-25T15:39:10.064Z,22.13
2018-03-25T15:41:43.653Z,46.10
2018-03-25T15:44:15.786Z,36.07
2018-03-25T15:46:48.495Z,34.90
2018-03-25T15:49:19.083Z,24.00
2018-03-25T15:51:52.071Z,19.92
2018-03-25T15:54:22.469Z,19.92
2018-03-25T15:56:52.984Z,18.67
2018-03-25T15:59:24.008Z,20.55
2018-03-25T16:01:56.129Z,16.80
2018-03-25T16:04:26.416Z,17.73
2018-03-25T16:06:57.288Z,20.00
2018-03-25T16:09:29.624Z,19.90
2018-03-25T16:12:00.902Z,19.52
2018-03-25T16:14:32.227Z,19.73
2018-03-25T16:17:03.491Z,22.42
2018-03-25T16:19:33.871Z,20.58
2018-03-25T16:22:02.437Z,21.55
2018-03-25T16:24:31.745Z,21.37
2018-03-25T16:27:00.200Z,21.05
2018-03-25T16:29:28.636Z,20.88
2018-03-25T16:31:57.141Z,21.67
2018-03-25T16:34:26.339Z,20.58
2018-03-25T16:36:55.689Z,22.00
2018-03-25T16:39:25.822Z,28.70
2018-03-25T16:41:54.286Z,25.40
2018-03-25T16:44:22.672Z,24.60
2018-03-25T16:46:51.107Z,22.17
2018-03-25T16:49:19.921Z,23.95
2018-03-25T16:51:50.573Z,21.50
2018-03-25T16:54:19.388Z,33.22
2018-03-25T16:56:48.558Z,24.45
2018-03-25T16:59:17.144Z,24.87
2018-03-25T17:01:45.555Z,25.48
2018-03-25T17:04:20.530Z,24.30
2018-03-25T17:06:48.964Z,24.40
2018-03-25T17:09:17.474Z,24.35
2018-03-25T17:11:46.619Z,21.75
2018-03-25T17:14:15.043Z,22.73
2018-03-25T17:16:44.195Z,23.80
2018-03-25T17:19:13.535Z,21.12
2018-03-25T17:21:42.714Z,24.15
2018-03-25T17:24:11.112Z,21.48
2018-03-25T17:26:40.291Z,22.95
2018-03-25T17:29:08.692Z,23.35
2018-03-25T17:31:38.299Z,21.92
2018-03-25T17:34:07.459Z,21.98
2018-03-25T17:36:35.854Z,23.95
2018-03-25T17:39:06.046Z,21.75
2018-03-25T17:41:34.463Z,20.58
2018-03-25T17:44:02.949Z,21.20
2018-03-25T17:46:32.129Z,20.00
2018-03-25T17:49:00.789Z,22.77
2018-03-25T17:51:29.199Z,24.60
2018-03-25T17:53:57.617Z,22.13
2018-03-25T17:56:26.181Z,23.10
2018-03-25T17:58:55.560Z,21.48
2018-03-25T18:01:24.135Z,21.87
2018-03-25T18:03:52.748Z,21.02
2018-03-25T18:06:22.764Z,21.55
2018-03-25T18:08:52.400Z,23.60
2018-03-25T18:11:21.271Z,22.70
2018-03-25T18:13:50.307Z,26.23
2018-03-25T18:16:19.033Z,23.73
2018-03-25T18:18:47.901Z,25.40
2018-03-25T18:21:16.440Z,25.40
2018-03-25T18:23:44.827Z,24.67
2018-03-25T18:26:13.735Z,22.37
2018-03-25T18:28:42.263Z,22.90
2018-03-25T18:31:11.431Z,22.67
2018-03-25T18:33:39.996Z,23.05
2018-03-25T18:36:08.416Z,22.55
2018-03-25T18:38:37.622Z,24.65
2018-03-25T18:41:06.973Z,24.27
2018-03-25T18:43:35.720Z,22.90
2018-03-25T18:46:04.117Z,22.17
2018-03-25T18:48:32.664Z,22.73
2018-03-25T18:51:01.124Z,22.08
2018-03-25T18:53:29.564Z,24.83
2018-03-25T18:55:58.678Z,22.58
2018-03-25T18:58:27.083Z,21.98
2018-03-25T19:00:55.845Z,24.20
2018-03-25T19:03:24.227Z,23.62
2018-03-25T19:05:52.698Z,23.42
2018-03-25T19:08:22.607Z,24.33
2018-03-25T19:10:51.015Z,22.25
2018-03-25T19:13:27.169Z,23.80
2018-03-25T19:16:02.942Z,23.87
2018-03-25T19:18:46.034Z,23.75
2018-03-25T19:21:16.640Z,27.27
2018-03-25T19:23:45.263Z,25.27
2018-03-25T19:26:13.881Z,24.05
2018-03-25T19:28:43.336Z,26.27
2018-03-25T19:31:11.815Z,23.85
2018-03-25T19:33:40.470Z,24.12
2018-03-25T19:36:08.907Z,25.50
2018-03-25T19:38:37.338Z,24.27
2018-03-25T19:41:05.734Z,24.00
2018-03-25T19:43:34.859Z,24.60
2018-03-25T19:46:03.420Z,25.20
2018-03-25T19:48:32.292Z,23.73
2018-03-25T19:51:01.015Z,24.60
2018-03-25T19:53:29.441Z,24.00
2018-03-25T19:55:58.719Z,23.90
2018-03-25T19:58:27.909Z,22.17
2018-03-25T20:00:56.514Z,23.33
2018-03-25T20:03:25.140Z,23.73
2018-03-25T20:05:53.869Z,25.33
2018-03-25T20:08:22.325Z,25.88
2018-03-25T20:10:51.296Z,25.35
2018-03-25T20:13:20.083Z,24.60
2018-03-25T20:15:49.798Z,24.37
2018-03-25T20:18:18.553Z,24.42
2018-03-25T20:20:47.147Z,24.92
2018-03-25T20:23:15.952Z,24.33
2018-03-25T20:25:44.804Z,22.52
2018-03-25T20:28:13.238Z,21.15
2018-03-25T20:30:41.792Z,21.95
2018-03-25T20:33:10.284Z,22.65
2018-03-25T20:35:38.695Z,22.58
2018-03-25T20:38:07.124Z,24.48
2018-03-25T20:40:35.509Z,21.62
2018-03-25T20:43:03.881Z,22.52
2018-03-25T20:45:32.494Z,24.92
2018-03-25T20:48:17.917Z,28.87
2018-03-25T20:51:00.332Z,24.87
2018-03-25T20:53:32.492Z,22.30
2018-03-25T20:56:06.239Z,22.55
2018-03-25T20:58:35.033Z,22.37
2018-03-25T21:01:03.434Z,24.45
2018-03-25T21:03:32.090Z,23.33
2018-03-25T21:06:00.888Z,23.60
2018-03-25T21:08:30.817Z,24.85
2018-03-25T21:11:00.401Z,22.30
2018-03-25T21:13:31.085Z,21.35
2018-03-25T21:16:02.298Z,21.98
2018-03-25T21:18:43.411Z,21.40
2018-03-25T21:21:24.096Z,23.27
2018-03-25T21:23:53.732Z,23.15
2018-03-25T21:26:22.122Z,24.08
2018-03-25T21:28:50.770Z,24.45
2018-03-25T21:31:19.155Z,26.55
2018-03-25T21:33:47.574Z,24.40
2018-03-25T21:36:16.773Z,23.98
2018-03-25T21:38:45.145Z,23.98
2018-03-25T21:41:26.778Z,26.23
2018-03-25T21:43:55.946Z,26.05
2018-03-25T21:46:24.596Z,25.50
2018-03-25T21:48:52.981Z,25.80
2018-03-25T21:51:21.357Z,26.08
2018-03-25T21:53:50.318Z,23.50
2018-03-25T21:56:18.723Z,24.63
2018-03-25T21:58:47.234Z,26.45
2018-03-25T22:01:15.671Z,26.33
2018-03-25T22:03:44.387Z,25.65
2018-03-25T22:06:12.774Z,23.77
2018-03-25T22:08:41.158Z,24.92
2018-03-25T22:11:09.569Z,22.85
2018-03-25T22:13:37.947Z,22.55
2018-03-25T22:16:07.125Z,22.27
2018-03-25T22:18:54.014Z,24.23
2018-03-25T22:21:22.719Z,24.48
2018-03-25T22:23:51.870Z,23.95
2018-03-25T22:26:20.314Z,23.48
2018-03-25T22:28:49.560Z,24.80
2018-03-25T22:31:18.132Z,23.08
2018-03-25T22:33:46.514Z,23.10
2018-03-25T22:36:14.886Z,26.37
2018-03-25T22:38:43.592Z,24.30
2018-03-25T22:41:11.974Z,25.70
2018-03-25T22:43:40.362Z,24.15
2018-03-25T22:46:08.938Z,24.80
2018-03-25T22:48:41.405Z,24.12
2018-03-25T22:51:15.052Z,26.67
2018-03-25T22:53:45.341Z,28.62
2018-03-25T22:56:13.795Z,26.23
2018-03-25T22:58:42.211Z,25.25
2018-03-25T23:01:11.741Z,26.77
2018-03-25T23:03:40.777Z,27.08
2018-03-25T23:06:09.182Z,28.80
2018-03-25T23:08:39.099Z,26.05
2018-03-25T23:11:08.277Z,28.62
2018-03-25T23:13:37.235Z,28.12
2018-03-25T23:16:05.610Z,25.30
2018-03-25T23:18:34.496Z,28.08
2018-03-25T23:21:03.041Z,28.27
2018-03-25T23:23:32.126Z,28.00
2018-03-25T23:26:00.523Z,28.52
2018-03-25T23:28:30.739Z,27.23
2018-03-25T23:30:59.519Z,26.05
2018-03-25T23:33:28.417Z,28.05
2018-03-25T23:35:57.719Z,27.62
2018-03-25T23:38:26.147Z,29.60
2018-03-25T23:40:55.062Z,29.25
2018-03-25T23:43:25.063Z,26.50
2018-03-25T23:45:53.441Z,26.98
2018-03-25T23:48:21.940Z,25.42
2018-03-25T23:50:50.320Z,29.50
2018-03-25T23:53:19.104Z,30.05
2018-03-25T23:55:47.711Z,28.48
2018-03-25T23:58:16.090Z,27.00
